Time;durP1;ratioP1;P1;durP2;ratioP2;P2;SDS_P1;SDS_P2;PMS_P1;PMS_P2;Temp;Humidity;BMP_temperature;BMP_pressure;BME280_temperature;BME280_humidity;BME280_pressure;Samples;Min_cycle;Max_cycle;Signal;HPM_P1;HPM_P2
2023/09/07 00:01:00;;;;;;;2.85;1.35;;;;;;;17.19;100.00;96559.16;5008684;28;20202;-69
2023/09/07 00:03:27;;;;;;;1.75;1.20;;;;;;;16.99;100.00;96571.69;5008463;28;20286;-69
2023/09/07 00:05:53;;;;;;;2.22;1.35;;;;;;;17.06;100.00;96561.06;5008464;28;20214;-69
2023/09/07 00:08:20;;;;;;;2.58;1.52;;;;;;;16.99;100.00;96568.22;5007927;28;20232;-69
2023/09/07 00:10:46;;;;;;;3.83;1.77;;;;;;;16.91;100.00;96565.81;5008564;28;20222;-69
2023/09/07 00:13:14;;;;;;;1.83;1.60;;;;;;;17.10;100.00;96569.22;5008296;28;20217;-70
2023/09/07 00:15:41;;;;;;;1.67;1.33;;;;;;;16.95;100.00;96569.69;5008488;28;20626;-69
2023/09/07 00:18:07;;;;;;;2.40;1.63;;;;;;;16.94;100.00;96566.22;5008125;28;20236;-69
2023/09/07 00:20:34;;;;;;;2.72;1.60;;;;;;;16.85;100.00;96566.63;5008512;28;20207;-69
2023/09/07 00:23:01;;;;;;;1.67;1.40;;;;;;;16.83;100.00;96566.03;5008144;28;20229;-69
2023/09/07 00:25:27;;;;;;;1.48;1.20;;;;;;;16.87;100.00;96562.72;5008729;28;20203;-69
2023/09/07 00:27:54;;;;;;;5.28;1.85;;;;;;;16.92;100.00;96562.13;5008109;28;20206;-69
2023/09/07 00:30:22;;;;;;;4.20;1.95;;;;;;;16.96;100.00;96560.66;5007649;28;20203;-69
2023/09/07 00:32:49;;;;;;;2.75;1.75;;;;;;;16.76;100.00;96552.72;5008398;28;20253;-69
2023/09/07 00:35:15;;;;;;;5.50;1.83;;;;;;;16.83;100.00;96555.38;5008031;28;20214;-69
2023/09/07 00:37:42;;;;;;;2.90;2.00;;;;;;;16.78;100.00;96553.31;5008256;28;20199;-69
2023/09/07 00:40:09;;;;;;;2.60;1.42;;;;;;;16.95;100.00;96559.84;5008385;28;20233;-69
2023/09/07 00:42:37;;;;;;;4.70;1.35;;;;;;;16.89;100.00;96562.50;5007871;28;20194;-69
2023/09/07 00:45:03;;;;;;;1.73;1.27;;;;;;;16.86;100.00;96561.09;5008275;28;20257;-69
2023/09/07 00:47:34;;;;;;;3.90;1.90;;;;;;;16.94;100.00;96558.22;5008057;28;20636;-69
2023/09/07 00:50:01;;;;;;;3.08;1.80;;;;;;;16.80;100.00;96567.25;5008110;28;20230;-69
2023/09/07 00:52:28;;;;;;;1.90;1.40;;;;;;;16.84;100.00;96560.50;5007886;28;20202;-69
2023/09/07 00:54:55;;;;;;;3.97;1.33;;;;;;;16.71;100.00;96562.34;5008241;28;20230;-69
2023/09/07 00:57:21;;;;;;;3.97;1.83;;;;;;;16.66;100.00;96560.31;5008284;28;20205;-69
2023/09/07 00:59:48;;;;;;;3.25;1.40;;;;;;;16.66;100.00;96556.81;5008000;28;20708;-69
2023/09/07 01:02:14;;;;;;;3.17;1.50;;;;;;;16.61;100.00;96556.59;5007809;28;20202;-69
2023/09/07 01:04:43;;;;;;;3.83;1.98;;;;;;;16.72;100.00;96559.47;5008024;28;20582;-69
2023/09/07 01:07:18;;;;;;;3.15;1.77;;;;;;;16.75;100.00;96563.56;5008110;28;20638;-69
2023/09/07 01:09:47;;;;;;;2.40;1.40;;;;;;;16.72;100.00;96563.97;5008225;28;20222;-69
2023/09/07 01:12:17;;;;;;;2.85;1.90;;;;;;;16.79;100.00;96565.63;5007643;28;20665;-69
2023/09/07 01:14:44;;;;;;;3.10;1.80;;;;;;;16.43;100.00;96560.94;5007916;28;20317;-68
2023/09/07 01:17:11;;;;;;;2.10;1.52;;;;;;;16.46;100.00;96564.00;5007693;28;20198;-68
2023/09/07 01:19:38;;;;;;;2.33;1.58;;;;;;;16.46;100.00;96564.00;5007982;28;20236;-69
2023/09/07 01:22:07;;;;;;;3.65;1.88;;;;;;;16.56;100.00;96553.78;5007566;28;20690;-69
2023/09/07 01:24:34;;;;;;;3.40;2.00;;;;;;;16.30;100.00;96552.94;5008005;28;20202;-68
2023/09/07 01:27:03;;;;;;;3.63;2.05;;;;;;;16.59;100.00;96551.50;5007948;28;20195;-68
2023/09/07 01:29:29;;;;;;;1.95;1.30;;;;;;;16.26;100.00;96547.22;5008916;28;20222;-68
2023/09/07 01:31:56;;;;;;;3.17;1.83;;;;;;;16.23;100.00;96547.59;5011388;28;20273;-69
2023/09/07 01:34:23;;;;;;;2.47;1.83;;;;;;;16.41;100.00;96547.84;5011053;28;20583;-69
2023/09/07 01:36:49;;;;;;;3.30;1.80;;;;;;;16.52;100.00;96542.72;5011459;28;20207;-69
2023/09/07 01:39:17;;;;;;;2.42;1.65;;;;;;;16.59;100.00;96540.06;5011261;28;20222;-69
2023/09/07 01:41:44;;;;;;;3.80;1.83;;;;;;;16.23;100.00;96539.63;5011035;28;20205;-69
2023/09/07 01:44:10;;;;;;;2.42;1.52;;;;;;;16.21;100.00;96540.84;5010926;28;20219;-69
2023/09/07 01:46:37;;;;;;;3.72;1.92;;;;;;;16.10;100.00;96541.44;5011239;28;20206;-68
2023/09/07 01:49:03;;;;;;;4.18;1.65;;;;;;;16.18;100.00;96539.41;5011061;28;20227;-69
2023/09/07 01:51:30;;;;;;;4.88;1.90;;;;;;;16.08;100.00;96540.84;5011000;28;20202;-69
2023/09/07 01:53:56;;;;;;;3.25;2.00;;;;;;;16.03;100.00;96538.78;5010851;28;20202;-69
2023/09/07 01:56:24;;;;;;;3.17;1.83;;;;;;;16.20;100.00;96542.66;5010796;28;20222;-69
2023/09/07 01:58:51;;;;;;;3.83;1.65;;;;;;;15.96;100.00;96543.28;5010789;28;20222;-69
2023/09/07 02:01:22;;;;;;;2.75;1.77;;;;;;;16.26;100.00;96544.56;5010924;28;20218;-69
2023/09/07 02:03:49;;;;;;;3.47;2.00;;;;;;;16.02;100.00;96539.00;5009449;28;20268;-69
2023/09/07 02:06:15;;;;;;;3.88;1.90;;;;;;;16.07;100.00;96547.19;5010207;28;20588;-69
2023/09/07 02:08:42;;;;;;;2.22;1.40;;;;;;;16.04;100.00;96542.28;5010425;28;20222;-69
2023/09/07 02:11:09;;;;;;;4.40;1.92;;;;;;;16.09;100.00;96545.94;5010616;28;20615;-69
2023/09/07 02:13:36;;;;;;;3.30;2.08;;;;;;;16.25;100.00;96540.22;5010460;28;20208;-69
2023/09/07 02:16:05;;;;;;;3.67;1.88;;;;;;;16.28;100.00;96539.88;5010490;28;20228;-69
2023/09/07 02:18:32;;;;;;;3.05;1.95;;;;;;;16.11;100.00;96538.56;5010606;28;20237;-69
2023/09/07 02:21:02;;;;;;;4.38;2.17;;;;;;;16.36;100.00;96539.66;5010331;28;20211;-69
2023/09/07 02:23:29;;;;;;;4.07;1.80;;;;;;;16.12;100.00;96537.56;5010375;28;20202;-68
2023/09/07 02:25:56;;;;;;;5.68;2.08;;;;;;;15.95;100.00;96544.28;5010363;28;20195;-69
2023/09/07 02:28:22;;;;;;;4.05;2.10;;;;;;;16.06;100.00;96551.69;5010096;28;20229;-69
2023/09/07 02:30:50;;;;;;;3.90;2.17;;;;;;;16.28;100.00;96547.84;5010226;28;20205;-69
2023/09/07 02:33:17;;;;;;;3.60;2.00;;;;;;;16.13;100.00;96549.84;5009746;28;20210;-69
2023/09/07 02:35:43;;;;;;;3.13;1.85;;;;;;;16.18;100.00;96555.38;5009957;28;20700;-68
2023/09/07 02:38:10;;;;;;;3.17;1.95;;;;;;;16.13;100.00;96552.50;5009776;28;20704;-68
2023/09/07 02:40:41;;;;;;;2.40;1.42;;;;;;;16.31;100.00;96550.09;5009549;28;20585;-68
2023/09/07 02:43:08;;;;;;;3.80;1.65;;;;;;;15.98;100.00;96554.50;5009587;28;20206;-68
2023/09/07 02:45:35;;;;;;;3.58;2.10;;;;;;;15.99;100.00;96547.38;5010025;28;20201;-68
2023/09/07 02:48:03;;;;;;;3.50;2.05;;;;;;;16.22;100.00;96551.28;5009662;28;20199;-68
2023/09/07 02:50:31;;;;;;;4.00;2.20;;;;;;;16.20;100.00;96550.66;5009751;28;20194;-69
2023/09/07 02:52:57;;;;;;;3.03;1.63;;;;;;;16.01;100.00;96550.63;5009778;28;20203;-68
2023/09/07 02:55:24;;;;;;;4.45;2.00;;;;;;;15.94;100.00;96549.81;5009613;28;20357;-68
2023/09/07 02:57:50;;;;;;;2.92;1.98;;;;;;;15.93;100.00;96551.63;5009613;28;20201;-68
2023/09/07 03:00:17;;;;;;;4.85;2.35;;;;;;;16.00;100.00;96549.03;5009232;28;20229;-69
2023/09/07 03:02:44;;;;;;;3.78;1.83;;;;;;;15.94;100.00;96545.31;5008926;28;20289;-68
2023/09/07 03:05:12;;;;;;;3.92;1.63;;;;;;;16.04;100.00;96543.09;5009693;28;20202;-68
2023/09/07 03:07:39;;;;;;;3.40;2.25;;;;;;;15.91;100.00;96536.91;5034983;22;20738;-73
2023/09/07 03:10:06;;;;;;;3.28;2.13;;;;;;;15.89;100.00;96539.78;5028528;28;20205;-73
2023/09/07 03:12:33;;;;;;;4.97;2.20;;;;;;;15.78;100.00;96536.09;5028574;28;20256;-73
2023/09/07 03:15:03;;;;;;;3.70;1.85;;;;;;;15.97;100.00;96550.25;5028829;28;20225;-72
2023/09/07 03:17:29;;;;;;;4.57;2.28;;;;;;;15.98;100.00;96540.41;5018647;28;20219;-72
2023/09/07 03:19:56;;;;;;;4.13;2.30;;;;;;;16.07;100.00;96547.19;5023424;28;20198;-73
2023/09/07 03:22:25;;;;;;;5.30;2.75;;;;;;;16.15;100.00;96544.31;5010407;28;20226;-73
2023/09/07 03:24:52;;;;;;;4.53;2.42;;;;;;;16.07;100.00;96542.66;5022047;28;20205;-73
2023/09/07 03:27:18;;;;;;;3.58;2.00;;;;;;;16.06;100.00;96546.38;5018991;28;20249;-73
2023/09/07 03:29:45;;;;;;;5.22;2.72;;;;;;;16.17;100.00;96542.28;5016776;28;20214;-73
2023/09/07 03:32:12;;;;;;;4.10;2.08;;;;;;;15.99;100.00;96540.22;5017210;28;20652;-73
2023/09/07 03:34:39;;;;;;;4.63;2.55;;;;;;;15.93;100.00;96545.53;5022092;28;20199;-73
2023/09/07 03:37:06;;;;;;;5.60;2.50;;;;;;;15.91;100.00;96543.06;5023540;28;20230;-73
2023/09/07 03:39:33;;;;;;;4.13;1.88;;;;;;;16.14;100.00;96542.66;5016530;28;20202;-73
2023/09/07 03:41:59;;;;;;;4.45;1.92;;;;;;;15.81;100.00;96547.16;5008848;28;20574;-73
2023/09/07 03:44:26;;;;;;;6.15;2.05;;;;;;;15.83;100.00;96547.75;5018482;28;20211;-73
2023/09/07 03:46:52;;;;;;;3.55;2.13;;;;;;;15.76;100.00;96554.06;5014421;28;20214;-73
2023/09/07 03:49:19;;;;;;;3.30;2.42;;;;;;;15.83;100.00;96549.59;5009129;28;20233;-73
2023/09/07 03:51:45;;;;;;;4.38;2.28;;;;;;;15.88;100.00;96548.78;5015016;28;20206;-73
2023/09/07 03:54:12;;;;;;;3.78;2.15;;;;;;;15.93;100.00;96550.84;5016524;28;20202;-73
2023/09/07 03:56:40;;;;;;;3.88;1.88;;;;;;;16.10;100.00;96550.25;5012653;28;20691;-73
2023/09/07 03:59:06;;;;;;;4.22;2.30;;;;;;;15.94;100.00;96549.81;5009988;28;20297;-73
2023/09/07 04:01:33;;;;;;;3.08;1.95;;;;;;;16.07;100.00;96553.31;5012205;28;20208;-73
2023/09/07 04:03:59;;;;;;;3.40;2.00;;;;;;;16.03;100.00;96549.41;5019261;28;20477;-72
2023/09/07 04:06:26;;;;;;;4.00;2.25;;;;;;;15.28;100.00;96561.25;5018784;28;20201;-73
2023/09/07 04:08:52;;;;;;;5.57;2.40;;;;;;;15.24;100.00;96559.22;5027601;28;20208;-73
2023/09/07 04:11:19;;;;;;;4.97;2.80;;;;;;;15.30;100.00;96551.28;5025518;28;20295;-73
2023/09/07 04:13:47;;;;;;;4.75;2.75;;;;;;;15.43;100.00;96545.19;5027083;28;20655;-73
2023/09/07 04:16:13;;;;;;;4.75;2.55;;;;;;;15.37;100.00;96553.94;5009540;28;20258;-72
2023/09/07 04:18:40;;;;;;;4.18;2.35;;;;;;;15.27;100.00;96550.84;5027558;28;20208;-73
2023/09/07 04:21:07;;;;;;;4.63;2.33;;;;;;;15.28;100.00;96552.47;5018841;28;20285;-73
2023/09/07 04:23:34;;;;;;;5.63;2.60;;;;;;;15.22;100.00;96553.25;5015783;28;20210;-73
2023/09/07 04:26:06;;;;;;;6.13;2.78;;;;;;;15.50;100.00;96538.06;5022013;28;20198;-73
2023/09/07 04:28:33;;;;;;;4.65;2.78;;;;;;;15.31;100.00;96549.41;5019542;28;20225;-73
2023/09/07 04:31:01;;;;;;;5.00;2.45;;;;;;;15.74;100.00;96537.50;5019228;28;20200;-73
2023/09/07 04:33:27;;;;;;;5.40;2.92;;;;;;;15.55;100.00;96539.09;5016957;28;20209;-73
2023/09/07 04:35:54;;;;;;;6.40;3.22;;;;;;;15.35;100.00;96545.34;5015409;28;20228;-72
2023/09/07 04:38:20;;;;;;;3.90;2.15;;;;;;;15.18;100.00;96549.34;5023328;28;20228;-73
2023/09/07 04:40:47;;;;;;;4.72;2.22;;;;;;;15.16;100.00;96553.19;5015649;28;20198;-73
2023/09/07 04:43:13;;;;;;;4.28;2.50;;;;;;;15.15;100.00;96551.56;5015554;28;20331;-73
2023/09/07 04:45:46;;;;;;;5.22;2.80;;;;;;;15.41;100.00;96555.19;5016167;28;20198;-73
2023/09/07 04:48:14;;;;;;;4.10;2.90;;;;;;;15.35;100.00;96559.47;5015360;28;20580;-73
2023/09/07 04:50:41;;;;;;;4.38;2.58;;;;;;;15.20;100.00;96557.09;5013198;28;20284;-73
2023/09/07 04:53:07;;;;;;;7.03;2.95;;;;;;;15.14;100.00;96561.38;5018834;28;20202;-73
2023/09/07 04:55:38;;;;;;;5.82;2.80;;;;;;;15.41;100.00;96557.84;5016240;28;20233;-73
2023/09/07 04:58:05;;;;;;;5.65;2.90;;;;;;;15.07;100.00;96560.53;5016361;28;20223;-73
2023/09/07 05:00:31;;;;;;;3.20;1.90;;;;;;;15.43;100.00;96558.47;5013121;28;20194;-72
2023/09/07 05:02:58;;;;;;;4.70;2.45;;;;;;;15.73;100.00;96555.28;5019451;28;21060;-72
2023/09/07 05:05:26;;;;;;;3.63;2.25;;;;;;;16.19;100.00;96556.19;5020489;28;20202;-73
2023/09/07 05:07:53;;;;;;;4.07;2.78;;;;;;;16.19;100.00;96559.66;5025006;28;20252;-72
2023/09/07 05:10:20;;;;;;;6.30;3.20;;;;;;;16.36;100.00;96558.28;5030359;28;20212;-72
2023/09/07 05:12:46;;;;;;;3.90;2.53;;;;;;;16.47;100.00;96559.50;5030199;28;20205;-73
2023/09/07 05:15:13;;;;;;;3.38;2.08;;;;;;;16.64;100.00;96553.56;5022250;28;20225;-73
2023/09/07 05:17:39;;;;;;;7.05;2.65;;;;;;;16.79;100.00;96554.13;5019376;28;20222;-73
2023/09/07 05:20:09;;;;;;;4.60;2.22;;;;;;;16.98;100.00;96556.78;5019795;28;20225;-73
2023/09/07 05:22:39;;;;;;;10.70;2.17;;;;;;;17.16;100.00;96563.06;5019365;28;20204;-72
2023/09/07 05:25:06;;;;;;;3.35;2.25;;;;;;;17.18;100.00;96561.03;5019658;28;20582;-73
2023/09/07 05:27:35;;;;;;;5.28;2.92;;;;;;;16.39;100.00;96568.50;5019195;28;20218;-73
2023/09/07 05:30:01;;;;;;;7.93;2.78;;;;;;;16.10;100.00;96563.56;5019413;28;20198;-73
2023/09/07 05:32:28;;;;;;;2.25;1.65;;;;;;;16.57;100.00;96560.72;5020918;28;20227;-73
2023/09/07 05:34:54;;;;;;;4.35;2.42;;;;;;;16.87;100.00;96570.72;5022645;28;20216;-73
2023/09/07 05:37:21;;;;;;;4.95;2.70;;;;;;;17.20;100.00;96574.94;5021377;28;20663;-73
2023/09/07 05:39:49;;;;;;;4.10;2.60;;;;;;;17.60;100.00;96575.66;5022602;28;20206;-71
2023/09/07 05:42:16;;;;;;;6.88;3.10;;;;;;;17.34;100.00;96575.75;5021057;28;20202;-71
2023/09/07 05:44:42;;;;;;;3.53;2.50;;;;;;;17.60;100.00;96579.13;5019262;28;20218;-71
2023/09/07 05:47:09;;;;;;;4.45;2.67;;;;;;;17.52;100.00;96583.88;5019070;28;20218;-73
2023/09/07 05:49:35;;;;;;;5.45;2.90;;;;;;;18.32;100.00;96575.03;5018512;28;20209;-72
2023/09/07 05:52:02;;;;;;;4.38;2.55;;;;;;;18.30;100.00;96579.75;5025108;28;20205;-72
2023/09/07 05:54:29;;;;;;;5.15;2.55;;;;;;;18.20;100.00;96576.78;5020557;28;20563;-72
2023/09/07 05:56:57;;;;;;;4.65;2.67;;;;;;;18.31;100.00;96576.06;5022790;28;20227;-74
2023/09/07 05:59:23;;;;;;;4.57;2.75;;;;;;;18.31;100.00;96583.28;5019378;28;20203;-75
2023/09/07 06:01:50;;;;;;;4.18;2.63;;;;;;;18.40;100.00;96580.91;5022952;28;20202;-76
2023/09/07 06:04:17;;;;;;;5.18;2.58;;;;;;;18.59;100.00;96577.28;5020363;28;20583;-74
2023/09/07 06:06:43;;;;;;;7.60;2.90;;;;;;;18.58;100.00;96583.69;5023156;28;20243;-74
2023/09/07 06:09:10;;;;;;;4.60;2.38;;;;;;;18.75;100.00;96584.75;5019688;28;20307;-74
2023/09/07 06:11:36;;;;;;;5.82;2.50;;;;;;;18.94;100.00;96578.41;5018937;28;20234;-75
2023/09/07 06:14:05;;;;;;;3.58;2.33;;;;;;;19.21;100.00;96582.50;5025141;28;20194;-75
2023/09/07 06:16:31;;;;;;;3.17;2.38;;;;;;;19.19;100.00;96587.22;5019560;28;20315;-74
2023/09/07 06:18:58;;;;;;;4.93;2.13;;;;;;;19.32;100.00;96581.75;5021386;28;20577;-74
2023/09/07 06:21:25;;;;;;;4.93;2.30;;;;;;;19.49;100.00;96580.94;5022919;28;20202;-74
2023/09/07 06:23:51;;;;;;;6.57;3.10;;;;;;;19.52;100.00;96580.47;5018053;28;20293;-75
2023/09/07 06:26:19;;;;;;;4.25;2.20;;;;;;;19.57;100.00;96581.44;5018529;28;20203;-74
2023/09/07 06:28:45;;;;;;;7.60;2.92;;;;;;;19.57;100.00;96582.50;5019403;28;20236;-74
2023/09/07 06:31:13;;;;;;;5.07;2.70;;;;;;;19.65;100.00;96591.00;5020525;28;20213;-75
2023/09/07 06:33:39;;;;;;;4.22;2.20;;;;;;;19.63;100.00;96596.59;5021885;28;20208;-71
2023/09/07 06:36:06;;;;;;;5.70;2.60;;;;;;;19.77;100.00;96591.91;5018244;28;20222;-71
2023/09/07 06:38:33;;;;;;;3.30;2.30;;;;;;;19.81;100.00;96601.09;5017674;28;20237;-72
2023/09/07 06:40:59;;;;;;;5.10;2.67;;;;;;;19.74;100.00;96601.19;5018387;28;20208;-72
2023/09/07 06:43:26;;;;;;;5.65;2.83;;;;;;;19.67;100.00;96602.31;5019817;28;20229;-72
2023/09/07 06:45:52;;;;;;;4.35;2.72;;;;;;;19.85;100.00;96603.09;5017815;28;20206;-72
2023/09/07 06:48:20;;;;;;;3.13;2.13;;;;;;;20.16;100.00;96592.19;5018877;28;20226;-72
2023/09/07 06:50:46;;;;;;;3.17;2.08;;;;;;;20.14;100.00;96593.47;5021126;28;20194;-72
2023/09/07 06:53:13;;;;;;;4.63;2.47;;;;;;;20.25;100.00;96601.53;5020109;28;20216;-72
2023/09/07 06:55:39;;;;;;;5.93;3.00;;;;;;;20.34;100.00;96601.00;5021087;28;20202;-72
2023/09/07 06:58:06;;;;;;;2.95;2.30;;;;;;;21.10;100.00;96601.84;5017357;28;20230;-72
2023/09/07 07:00:32;;;;;;;4.32;2.40;;;;;;;21.16;100.00;96607.09;5013796;28;20216;-72
2023/09/07 07:02:59;;;;;;;4.07;2.25;;;;;;;21.10;100.00;96599.16;5020762;28;20841;-72
2023/09/07 07:05:29;;;;;;;5.38;2.72;;;;;;;21.31;100.00;96603.94;5018424;28;20224;-72
2023/09/07 07:07:55;;;;;;;4.88;2.53;;;;;;;21.13;100.00;96604.88;5017059;28;20226;-73
2023/09/07 07:10:22;;;;;;;4.57;2.42;;;;;;;20.61;100.00;96609.44;5018987;28;20217;-72
2023/09/07 07:12:48;;;;;;;4.72;2.50;;;;;;;20.49;100.00;96608.59;5020418;28;20198;-72
2023/09/07 07:15:18;;;;;;;5.53;2.20;;;;;;;20.68;100.00;96610.16;5020580;28;20212;-73
2023/09/07 07:17:44;;;;;;;3.72;2.53;;;;;;;20.60;100.00;96613.19;5017406;28;20336;-72
2023/09/07 07:20:11;;;;;;;6.93;2.80;;;;;;;20.45;100.00;96613.59;5020164;28;20205;-72
2023/09/07 07:22:39;;;;;;;3.03;2.13;;;;;;;20.70;100.00;96616.13;5016652;28;20672;-72
2023/09/07 07:25:06;;;;;;;4.50;2.75;;;;;;;20.75;100.00;96613.56;5016657;28;20217;-72
2023/09/07 07:27:33;;;;;;;6.75;3.10;;;;;;;20.74;100.00;96617.31;5018345;28;20302;-73
2023/09/07 07:30:00;;;;;;;3.67;2.50;;;;;;;20.69;100.00;96617.16;5014861;28;20203;-73
2023/09/07 07:32:26;;;;;;;5.28;2.80;;;;;;;20.73;100.00;96623.72;5018973;28;20214;-72
2023/09/07 07:34:53;;;;;;;4.30;2.40;;;;;;;20.98;100.00;96620.59;5025093;28;20200;-72
2023/09/07 07:37:19;;;;;;;5.90;2.63;;;;;;;21.20;100.00;96624.34;5017954;28;20230;-72
2023/09/07 07:39:47;;;;;;;5.15;2.70;;;;;;;21.28;100.00;96629.34;5020196;28;20498;-72
2023/09/07 07:42:14;;;;;;;5.60;2.53;;;;;;;21.23;100.00;96625.75;5019824;28;20208;-72
2023/09/07 07:44:40;;;;;;;4.15;2.58;;;;;;;21.19;100.00;96625.38;5011324;28;20309;-72
2023/09/07 07:47:07;;;;;;;6.22;2.70;;;;;;;21.31;100.00;96626.22;5022966;28;20229;-72
2023/09/07 07:49:34;;;;;;;4.32;2.47;;;;;;;21.24;100.00;96622.81;5023130;28;20571;-72
2023/09/07 07:52:00;;;;;;;4.57;2.50;;;;;;;21.42;100.00;96620.00;5018346;28;20257;-73
2023/09/07 07:54:28;;;;;;;3.75;2.47;;;;;;;21.67;100.00;96624.09;5016256;28;20620;-73
2023/09/07 07:56:56;;;;;;;5.55;2.72;;;;;;;21.78;100.00;96617.91;5016521;28;20229;-73
2023/09/07 07:59:22;;;;;;;4.95;2.78;;;;;;;21.76;100.00;96608.47;5017611;28;20587;-73
2023/09/07 08:01:49;;;;;;;5.43;2.83;;;;;;;22.04;100.00;96610.09;5015702;28;20198;-72
2023/09/07 08:04:16;;;;;;;4.32;2.47;;;;;;;21.99;100.00;96619.13;5017343;28;20203;-73
2023/09/07 08:06:42;;;;;;;5.32;3.10;;;;;;;22.04;100.00;96612.78;5016716;28;21125;-73
2023/09/07 08:09:09;;;;;;;5.00;2.67;;;;;;;22.19;100.00;96613.09;5016393;28;20217;-73
2023/09/07 08:11:38;;;;;;;4.03;2.40;;;;;;;22.49;100.00;96612.88;5016953;28;20315;-73
2023/09/07 08:14:06;;;;;;;7.47;2.95;;;;;;;22.62;100.00;96609.88;5017450;28;20667;-73
2023/09/07 08:16:32;;;;;;;5.03;2.78;;;;;;;22.32;100.00;96607.47;5011404;28;20209;-73
2023/09/07 08:18:59;;;;;;;6.65;2.92;;;;;;;22.38;100.00;96611.06;5016214;28;20574;-73
2023/09/07 08:21:25;;;;;;;3.95;2.47;;;;;;;22.63;100.00;96612.31;5018680;28;20204;-73
2023/09/07 08:23:53;;;;;;;6.53;2.45;;;;;;;22.69;100.00;96614.03;5020646;28;20289;-72
2023/09/07 08:26:20;;;;;;;4.80;2.67;;;;;;;22.68;100.00;96626.66;5021024;28;20207;-73
2023/09/07 08:28:47;;;;;;;4.60;2.63;;;;;;;22.77;100.00;96619.84;5011447;28;20198;-72
2023/09/07 08:31:20;;;;;;;4.80;2.53;;;;;;;23.30;100.00;96614.81;5016527;28;20210;-73
2023/09/07 08:33:50;;;;;;;5.20;2.63;;;;;;;22.83;100.00;96618.03;5023310;28;20769;-73
2023/09/07 08:36:17;;;;;;;3.97;2.22;;;;;;;22.98;100.00;96615.63;5017810;28;20259;-73
2023/09/07 08:38:44;;;;;;;6.50;2.90;;;;;;;23.24;100.00;96617.66;5016331;28;20225;-73
2023/09/07 08:41:11;;;;;;;4.15;2.88;;;;;;;23.11;100.00;96620.69;5020799;28;20210;-73
2023/09/07 08:43:46;;;;;;;5.53;2.90;;;;;;;23.35;100.00;96620.25;5023180;28;20297;-73
2023/09/07 08:46:20;;;;;;;5.38;2.55;;;;;;;23.56;100.00;96614.09;5022451;28;20213;-73
2023/09/07 08:48:47;;;;;;;5.63;2.72;;;;;;;23.76;100.00;96609.03;5020124;28;20253;-73
2023/09/07 08:51:16;;;;;;;6.25;3.05;;;;;;;24.35;100.00;96614.31;5016256;28;20204;-73
2023/09/07 08:53:46;;;;;;;4.65;2.70;;;;;;;24.17;100.00;96617.34;5019990;28;20669;-72
2023/09/07 08:56:13;;;;;;;3.60;2.33;;;;;;;24.13;100.00;96616.22;5015811;28;20753;-73
2023/09/07 08:58:40;;;;;;;8.73;2.50;;;;;;;23.82;100.00;96614.22;5020686;28;20236;-73
2023/09/07 09:01:08;;;;;;;7.53;3.30;;;;;;;24.04;100.00;96628.50;5020415;28;20233;-72
2023/09/07 09:03:36;;;;;;;4.70;2.47;;;;;;;24.56;100.00;96613.50;5022756;28;20630;-73
2023/09/07 09:06:04;;;;;;;6.75;2.80;;;;;;;23.61;100.00;96617.69;5015169;28;20217;-72
2023/09/07 09:11:03;;;;;;;3.97;2.30;;;;;;;23.91;100.00;96617.31;5020863;28;20202;-69
2023/09/07 09:13:31;;;;;;;4.07;2.50;;;;;;;23.76;100.00;96614.41;5024074;28;20209;-69
2023/09/07 09:16:00;;;;;;;4.55;2.95;;;;;;;23.71;100.00;96607.06;5026116;28;20205;-69
2023/09/07 09:18:27;;;;;;;6.07;3.10;;;;;;;24.10;100.00;96606.75;5016393;28;20288;-69
2023/09/07 09:20:58;;;;;;;3.85;2.33;;;;;;;24.01;100.00;96608.28;5022054;28;20207;-69
2023/09/07 09:23:25;;;;;;;4.75;2.60;;;;;;;24.19;100.00;96599.88;5028419;28;20197;-69
2023/09/07 09:25:51;;;;;;;5.75;2.97;;;;;;;24.17;100.00;96612.78;5015510;28;20257;-69
2023/09/07 09:28:18;;;;;;;4.63;2.67;;;;;;;24.12;100.00;96615.41;5027765;28;20798;-69
2023/09/07 09:30:45;;;;;;;4.85;2.85;;;;;;;23.73;100.00;96610.34;5021783;28;20198;-69
2023/09/07 09:33:12;;;;;;;3.25;2.47;;;;;;;24.10;100.00;96605.97;5020567;28;20296;-69
2023/09/07 09:35:39;;;;;;;4.68;2.72;;;;;;;24.23;100.00;96613.66;5025408;28;20214;-69
2023/09/07 09:38:06;;;;;;;4.10;2.55;;;;;;;24.51;100.00;96599.97;5022367;28;20226;-69
2023/09/07 09:40:34;;;;;;;4.85;2.67;;;;;;;24.56;100.00;96593.53;5019052;28;20210;-69
2023/09/07 09:43:02;;;;;;;4.75;2.63;;;;;;;24.67;100.00;96606.06;5018202;28;20199;-69
2023/09/07 09:45:29;;;;;;;5.32;2.88;;;;;;;24.82;100.00;96599.97;5021578;28;20210;-69
2023/09/07 09:47:56;;;;;;;4.93;2.97;;;;;;;25.15;100.00;96600.56;5022487;28;20214;-69
2023/09/07 09:50:24;;;;;;;4.32;2.63;;;;;;;24.47;100.00;96593.47;5016284;28;20226;-69
2023/09/07 09:52:52;;;;;;;3.67;2.45;;;;;;;24.76;100.00;96596.44;5014686;28;20199;-69
2023/09/07 09:55:21;;;;;;;5.50;2.67;;;;;;;24.66;100.00;96603.63;5020420;28;20562;-69
2023/09/07 09:57:47;;;;;;;5.18;2.83;;;;;;;24.71;100.00;96585.59;5021965;28;20230;-69
2023/09/07 10:00:25;;;;;;;3.75;2.42;;;;;;;25.16;100.00;96587.91;5019917;28;20206;-69
2023/09/07 10:02:58;;;;;;;3.97;2.35;;;;;;;25.69;100.00;96580.38;5021777;28;20230;-69
2023/09/07 10:05:26;;;;;;;5.88;2.60;;;;;;;25.75;100.00;96584.78;5017587;28;20213;-69
2023/09/07 10:07:53;;;;;;;3.45;2.30;;;;;;;25.61;100.00;96581.72;5021277;28;20295;-69
2023/09/07 10:10:21;;;;;;;4.03;2.67;;;;;;;25.73;100.00;96570.75;5019197;28;20221;-69
2023/09/07 10:12:53;;;;;;;4.72;2.67;;;;;;;25.49;100.00;96572.19;5022123;28;20203;-69
2023/09/07 10:15:27;;;;;;;4.05;2.42;;;;;;;25.65;96.24;96571.19;5023665;28;20584;-69
2023/09/07 10:18:07;;;;;;;3.85;2.40;;;;;;;25.95;100.00;96570.31;5014056;28;20232;-69
2023/09/07 10:20:55;;;;;;;6.25;2.92;;;;;;;26.49;99.35;96566.16;5021062;28;20566;-69
2023/09/07 10:23:22;;;;;;;5.65;3.10;;;;;;;26.03;100.00;96569.78;5014448;28;20207;-69
2023/09/07 10:25:51;;;;;;;5.78;2.40;;;;;;;26.66;93.99;96572.13;5023996;28;20581;-69
2023/09/07 10:28:22;;;;;;;4.13;2.13;;;;;;;26.54;97.85;96568.88;5017801;28;20218;-69
2023/09/07 10:31:03;;;;;;;4.65;2.45;;;;;;;26.59;95.97;96566.13;5017118;28;20202;-69
2023/09/07 10:33:30;;;;;;;5.07;2.38;;;;;;;26.07;100.00;96567.34;5017624;28;20631;-69
2023/09/07 10:35:56;;;;;;;5.32;1.88;;;;;;;26.06;100.00;96565.75;5021461;28;20206;-69
2023/09/07 10:38:23;;;;;;;4.78;2.40;;;;;;;26.80;93.32;96565.09;5021192;28;20232;-69
2023/09/07 10:40:57;;;;;;;3.15;2.30;;;;;;;26.96;91.97;96572.16;5017825;28;20194;-69
2023/09/07 10:43:23;;;;;;;5.55;2.90;;;;;;;26.76;93.90;96569.44;5020877;28;20656;-69
2023/09/07 10:45:50;;;;;;;4.55;2.63;;;;;;;26.71;96.18;96566.72;5017989;28;20221;-69
2023/09/07 10:48:17;;;;;;;4.45;2.67;;;;;;;26.70;94.01;96571.28;5021701;28;20738;-69
2023/09/07 10:50:44;;;;;;;4.25;2.67;;;;;;;26.63;97.48;96564.56;5014980;28;20578;-69
2023/09/07 10:53:14;;;;;;;5.03;2.15;;;;;;;27.05;95.30;96576.78;5019074;28;20280;-69
2023/09/07 10:55:43;;;;;;;3.92;2.17;;;;;;;26.97;93.68;96568.38;5016126;28;20813;-69
2023/09/07 10:58:11;;;;;;;3.58;2.35;;;;;;;26.88;92.71;96567.25;5017818;28;20297;-69
2023/09/07 11:00:37;;;;;;;2.60;2.00;;;;;;;27.03;96.96;96573.50;5014250;28;20214;-69
2023/09/07 11:03:08;;;;;;;5.00;2.25;;;;;;;27.35;93.33;96566.69;5019338;28;20206;-69
2023/09/07 11:05:37;;;;;;;5.32;2.67;;;;;;;27.26;91.42;96568.34;5020263;28;20642;-69
2023/09/07 11:08:04;;;;;;;3.83;2.38;;;;;;;27.21;87.33;96559.41;5020424;28;20707;-69
2023/09/07 11:10:33;;;;;;;3.75;2.40;;;;;;;27.45;90.58;96561.25;5022036;28;20305;-69
2023/09/07 11:13:03;;;;;;;6.78;2.90;;;;;;;27.41;88.46;96560.19;5015327;28;20289;-69
2023/09/07 11:15:33;;;;;;;4.32;2.45;;;;;;;27.44;89.72;96559.63;5019288;28;20682;-69
2023/09/07 11:18:04;;;;;;;3.95;2.70;;;;;;;27.43;92.51;96552.63;5020065;28;20687;-69
2023/09/07 11:20:31;;;;;;;3.25;1.95;;;;;;;27.36;93.56;96552.09;5017639;28;20209;-70
2023/09/07 11:22:58;;;;;;;3.97;2.10;;;;;;;27.52;85.82;96545.56;5014864;28;20202;-69
2023/09/07 11:25:24;;;;;;;2.58;2.00;;;;;;;27.36;84.42;96549.38;5026433;28;20194;-69
2023/09/07 11:27:54;;;;;;;3.97;2.13;;;;;;;27.76;88.25;96543.88;5018169;28;20226;-69
2023/09/07 11:30:21;;;;;;;3.35;2.10;;;;;;;27.48;88.76;96551.78;5022875;28;20198;-69